createdAt,value
2022-08-23T00:03:04.194Z,20.36
2022-08-23T00:08:08.323Z,20.38
2022-08-23T00:13:12.567Z,20.37
2022-08-23T00:18:16.630Z,20.36
2022-08-23T00:23:19.819Z,20.37
2022-08-23T00:28:24.207Z,20.38
2022-08-23T00:33:27.445Z,20.39
2022-08-23T00:38:34.215Z,20.38
2022-08-23T00:44:00.071Z,20.38
2022-08-23T00:49:08.295Z,20.39
2022-08-23T00:54:12.433Z,20.42
2022-08-23T00:59:17.037Z,20.43
2022-08-23T01:04:20.921Z,20.36
2022-08-23T01:09:23.953Z,20.28
2022-08-23T01:14:33.183Z,20.21
2022-08-23T01:19:38.695Z,20.15
2022-08-23T01:25:07.268Z,20.05
2022-08-23T01:30:12.893Z,20.03
2022-08-23T01:35:16.944Z,20.01
2022-08-23T01:40:21.897Z,19.95
2022-08-23T01:45:25.059Z,19.89
2022-08-23T01:50:29.653Z,19.93
2022-08-23T01:55:35.001Z,19.98
2022-08-23T02:00:41.774Z,19.97
2022-08-23T02:05:45.812Z,20.00
2022-08-23T02:10:50.944Z,20.03
2022-08-23T02:15:55.172Z,19.98
2022-08-23T02:21:00.036Z,19.92
2022-08-23T02:26:07.086Z,19.89
2022-08-23T02:31:10.330Z,19.90
2022-08-23T02:36:15.613Z,19.91
2022-08-23T02:41:20.002Z,19.90
2022-08-23T02:46:23.734Z,19.87
2022-08-23T02:51:28.553Z,19.86
2022-08-23T02:56:33.080Z,19.82
2022-08-23T03:01:39.813Z,19.83
2022-08-23T03:06:55.444Z,19.84
2022-08-23T03:12:00.012Z,19.86
2022-08-23T03:17:03.748Z,19.85
2022-08-23T03:22:06.971Z,19.82
2022-08-23T03:27:12.713Z,19.83
2022-08-23T03:32:17.477Z,19.85
2022-08-23T03:37:22.256Z,19.83
2022-08-23T03:42:30.808Z,19.84
2022-08-23T03:47:37.182Z,19.82
2022-08-23T03:52:41.239Z,19.83
2022-08-23T03:57:46.016Z,19.84
2022-08-23T04:02:50.379Z,19.89
2022-08-23T04:07:55.166Z,19.82
2022-08-23T04:13:01.878Z,19.69
2022-08-23T04:18:05.260Z,19.74
2022-08-23T04:23:09.627Z,19.85
2022-08-23T04:28:25.143Z,19.91
2022-08-23T04:33:28.904Z,19.94
2022-08-23T04:38:34.954Z,20.00
2022-08-23T04:43:45.034Z,20.00
2022-08-23T04:48:49.790Z,20.02
2022-08-23T04:53:55.458Z,20.05
2022-08-23T04:59:16.853Z,20.06
2022-08-23T05:04:21.717Z,20.07
2022-08-23T05:09:25.236Z,20.11
2022-08-23T05:14:29.869Z,20.15
2022-08-23T05:19:32.989Z,20.19
2022-08-23T05:24:36.145Z,20.23
2022-08-23T05:29:40.742Z,20.30
2022-08-23T05:34:43.784Z,20.31
2022-08-23T05:39:47.146Z,20.33
2022-08-23T05:44:51.631Z,20.40
2022-08-23T05:49:56.856Z,20.47
2022-08-23T05:55:00.823Z,20.55
2022-08-23T06:00:37.385Z,20.64
2022-08-23T06:05:44.297Z,20.69
2022-08-23T06:10:48.644Z,20.70
2022-08-23T06:16:14.458Z,20.73
2022-08-23T06:21:18.753Z,20.76
2022-08-23T06:26:27.095Z,20.82
2022-08-23T06:31:47.736Z,20.86
2022-08-23T06:37:05.881Z,20.89
2022-08-23T06:42:42.764Z,20.93
2022-08-23T06:47:47.303Z,20.98
2022-08-23T06:52:50.664Z,21.00
2022-08-23T06:58:04.827Z,21.05
2022-08-23T07:03:29.652Z,21.09
2022-08-23T07:08:58.940Z,21.16
2022-08-23T07:14:04.219Z,21.23
2022-08-23T07:19:09.851Z,21.26
2022-08-23T07:24:15.696Z,21.38
2022-08-23T07:29:23.877Z,21.58
2022-08-23T07:34:30.131Z,21.75
2022-08-23T07:39:33.338Z,21.93
2022-08-23T07:44:37.805Z,22.06
2022-08-23T07:49:42.392Z,22.26
2022-08-23T07:54:48.258Z,22.42
2022-08-23T08:00:02.214Z,22.68
2022-08-23T08:05:27.947Z,22.86
2022-08-23T08:10:33.414Z,23.18
2022-08-23T08:15:37.346Z,23.54
2022-08-23T08:20:46.750Z,24.00
2022-08-23T08:26:23.133Z,24.40
2022-08-23T08:31:30.792Z,24.82
2022-08-23T08:36:39.251Z,25.12
2022-08-23T08:42:03.948Z,25.68
2022-08-23T08:47:15.454Z,26.15
2022-08-23T08:52:25.631Z,26.39
2022-08-23T08:57:37.157Z,26.54
2022-08-23T09:02:40.815Z,27.14
2022-08-23T09:07:57.979Z,27.43
2022-08-23T09:13:19.985Z,27.85
2022-08-23T09:18:24.409Z,28.29
2022-08-23T09:23:35.644Z,28.73
2022-08-23T09:28:39.032Z,29.25
2022-08-23T09:33:46.083Z,29.67
2022-08-23T09:39:30.989Z,29.64
2022-08-23T09:44:44.184Z,30.17
2022-08-23T09:49:51.404Z,30.51
2022-08-23T09:55:00.904Z,30.72
2022-08-23T10:00:25.162Z,31.22
2022-08-23T10:05:36.985Z,31.61
2022-08-23T10:10:50.701Z,32.05
2022-08-23T10:16:11.149Z,32.42
2022-08-23T10:21:33.935Z,32.43
2022-08-23T10:26:46.422Z,32.51
2022-08-23T10:31:59.520Z,32.92
2022-08-23T10:37:22.736Z,33.27
2022-08-23T10:42:36.720Z,33.39
2022-08-23T10:47:55.508Z,33.54
2022-08-23T10:53:08.646Z,33.58
2022-08-23T10:58:19.995Z,33.46
2022-08-23T11:03:31.157Z,33.58
2022-08-23T11:08:47.488Z,33.59
2022-08-23T11:13:55.073Z,33.53
2022-08-23T11:18:58.763Z,33.26
2022-08-23T11:25:04.191Z,33.13
2022-08-23T11:30:45.575Z,33.16
2022-08-23T11:35:52.760Z,33.20
2022-08-23T11:41:00.493Z,33.17
2022-08-23T11:46:35.788Z,32.75
2022-08-23T11:51:59.015Z,32.55
2022-08-23T11:57:16.925Z,33.15
2022-08-23T12:02:53.491Z,33.24
2022-08-23T12:08:43.261Z,33.35
2022-08-23T12:14:30.209Z,33.53
2022-08-23T12:19:40.443Z,33.65
2022-08-23T12:24:47.501Z,32.67
2022-08-23T12:30:00.035Z,32.77
2022-08-23T12:35:19.001Z,32.86
2022-08-23T12:40:29.298Z,32.78
2022-08-23T12:45:39.046Z,32.51
2022-08-23T12:50:45.581Z,32.80
2022-08-23T12:55:51.116Z,32.63
2022-08-23T13:00:56.463Z,32.81
2022-08-23T13:06:05.141Z,32.74
2022-08-23T13:11:10.158Z,32.47
2022-08-23T13:16:28.969Z,32.65
2022-08-23T13:21:40.041Z,32.97
2022-08-23T13:26:50.670Z,32.71
2022-08-23T13:32:03.231Z,32.21
2022-08-23T13:37:20.956Z,32.44
2022-08-23T13:42:32.982Z,32.75
2022-08-23T13:47:36.520Z,32.75
2022-08-23T13:53:03.238Z,32.78
2022-08-23T13:58:12.000Z,32.98
2022-08-23T14:03:15.049Z,33.08
2022-08-23T14:08:19.617Z,33.10
2022-08-23T14:13:28.907Z,33.29
2022-08-23T14:18:32.423Z,33.19
2022-08-23T14:23:37.096Z,33.37
2022-08-23T14:28:44.325Z,33.37
2022-08-23T14:33:48.214Z,33.42
2022-08-23T14:38:52.764Z,33.54
2022-08-23T14:43:55.960Z,33.57
2022-08-23T14:48:59.180Z,33.65
2022-08-23T14:54:05.643Z,33.48
2022-08-23T14:59:08.661Z,33.28
2022-08-23T15:04:12.895Z,33.26
2022-08-23T15:09:17.554Z,33.43
2022-08-23T15:14:20.529Z,33.27
2022-08-23T15:19:23.518Z,33.24
2022-08-23T15:24:27.931Z,33.54
2022-08-23T15:29:31.111Z,33.57
2022-08-23T15:34:36.867Z,33.36
2022-08-23T15:39:44.517Z,33.07
2022-08-23T15:44:48.078Z,32.93
2022-08-23T15:49:51.904Z,32.90
2022-08-23T15:54:56.668Z,32.69
2022-08-23T15:59:59.703Z,32.59
2022-08-23T16:05:02.935Z,32.55
2022-08-23T16:10:08.837Z,32.49
2022-08-23T16:15:12.279Z,32.70
2022-08-23T16:20:15.324Z,32.59
2022-08-23T16:25:21.228Z,32.47
2022-08-23T16:30:40.126Z,32.27
2022-08-23T16:35:43.210Z,32.39
2022-08-23T16:40:47.550Z,32.87
2022-08-23T16:45:51.053Z,33.03
2022-08-23T16:50:56.717Z,32.74
2022-08-23T16:56:01.047Z,32.36
2022-08-23T17:01:04.230Z,32.31
2022-08-23T17:06:07.846Z,32.25
2022-08-23T17:11:19.746Z,31.99
2022-08-23T17:16:24.270Z,31.77
2022-08-23T17:21:27.999Z,31.67
2022-08-23T17:26:33.293Z,31.58
2022-08-23T17:31:36.745Z,31.63
2022-08-23T17:36:47.615Z,31.52
2022-08-23T17:41:53.826Z,31.42
2022-08-23T17:46:57.096Z,31.15
2022-08-23T17:52:00.187Z,31.17
2022-08-23T17:57:04.867Z,31.02
2022-08-23T18:02:08.616Z,30.59
2022-08-23T18:07:11.741Z,30.18
2022-08-23T18:12:16.057Z,29.75
2022-08-23T18:17:19.445Z,29.45
2022-08-23T18:22:22.389Z,28.99
2022-08-23T18:27:44.137Z,28.79
2022-08-23T18:32:50.136Z,28.47
2022-08-23T18:37:53.252Z,28.32
2022-08-23T18:42:58.275Z,28.13
2022-08-23T18:48:03.704Z,27.89
2022-08-23T18:53:07.898Z,27.72
2022-08-23T18:58:13.216Z,27.52
2022-08-23T19:03:16.558Z,27.37
2022-08-23T19:08:19.610Z,27.25
2022-08-23T19:13:24.116Z,27.08
2022-08-23T19:18:27.772Z,26.90
2022-08-23T19:23:30.851Z,26.74
2022-08-23T19:28:38.616Z,26.53
2022-08-23T19:33:43.814Z,26.39
2022-08-23T19:38:46.907Z,26.20
2022-08-23T19:43:51.393Z,26.05
2022-08-23T19:48:54.565Z,25.87
2022-08-23T19:54:11.197Z,25.75
2022-08-23T19:59:20.525Z,25.63
2022-08-23T20:04:24.476Z,25.54
2022-08-23T20:09:29.581Z,25.36
2022-08-23T20:14:35.324Z,25.20
2022-08-23T20:19:38.927Z,25.07
2022-08-23T20:24:51.330Z,24.95
2022-08-23T20:29:57.217Z,24.78
2022-08-23T20:35:01.448Z,24.69
2022-08-23T20:40:06.043Z,24.62
2022-08-23T20:45:11.638Z,24.50
2022-08-23T20:50:14.601Z,24.39
2022-08-23T20:55:17.871Z,24.33
2022-08-23T21:00:22.938Z,24.27
2022-08-23T21:05:26.130Z,24.17
2022-08-23T21:10:29.207Z,24.08
2022-08-23T21:15:33.855Z,23.98
2022-08-23T21:20:37.030Z,23.93
2022-08-23T21:25:40.271Z,23.80
2022-08-23T21:30:44.737Z,23.75
2022-08-23T21:35:47.819Z,23.71
2022-08-23T21:40:58.219Z,23.62
2022-08-23T21:46:04.917Z,23.61
2022-08-23T21:51:09.021Z,23.63
2022-08-23T21:56:12.022Z,23.60
2022-08-23T22:01:16.661Z,23.52
2022-08-23T22:06:19.760Z,23.42
2022-08-23T22:11:23.740Z,23.39
2022-08-23T22:16:28.390Z,23.41
2022-08-23T22:21:31.774Z,23.41
2022-08-23T22:26:39.021Z,23.36
2022-08-23T22:31:44.061Z,23.30
2022-08-23T22:36:52.065Z,23.23
2022-08-23T22:41:56.147Z,23.19
2022-08-23T22:47:00.723Z,23.11
2022-08-23T22:52:06.793Z,22.98
2022-08-23T22:57:09.802Z,22.89
2022-08-23T23:02:14.125Z,22.79
2022-08-23T23:07:39.425Z,22.71
2022-08-23T23:12:42.548Z,22.64
2022-08-23T23:17:46.943Z,22.56
2022-08-23T23:22:51.927Z,22.47
2022-08-23T23:27:54.919Z,22.42
2022-08-23T23:33:06.297Z,22.33
2022-08-23T23:38:10.185Z,22.27
2022-08-23T23:43:13.577Z,22.24
2022-08-23T23:48:17.948Z,22.19
2022-08-23T23:53:20.948Z,22.09
2022-08-23T23:58:23.897Z,22.05
